createdAt,value
2018-05-16T00:01:43.042Z,19.47
2018-05-16T00:04:16.960Z,20.33
2018-05-16T00:06:51.664Z,20.33
2018-05-16T00:09:25.574Z,20.33
2018-05-16T00:11:59.303Z,21.33
2018-05-16T00:14:33.526Z,20.23
2018-05-16T00:17:07.554Z,19.17
2018-05-16T00:19:41.976Z,19.00
2018-05-16T00:22:15.846Z,17.60
2018-05-16T00:24:49.830Z,20.03
2018-05-16T00:27:26.328Z,20.23
2018-05-16T00:30:00.113Z,18.67
2018-05-16T00:32:33.934Z,18.33
2018-05-16T00:35:08.469Z,18.30
2018-05-16T00:37:43.470Z,19.43
2018-05-16T00:40:17.990Z,18.00
2018-05-16T00:42:51.796Z,18.47
2018-05-16T00:45:25.505Z,18.57
2018-05-16T00:48:00.239Z,19.27
2018-05-16T00:50:34.038Z,20.33
2018-05-16T00:53:09.264Z,16.77
2018-05-16T00:55:44.527Z,18.90
2018-05-16T00:58:18.951Z,16.77
2018-05-16T01:00:53.659Z,18.00
2018-05-16T01:03:27.776Z,17.67
2018-05-16T01:06:02.398Z,18.00
2018-05-16T01:08:36.827Z,17.23
2018-05-16T01:11:10.643Z,17.70
2018-05-16T01:13:45.551Z,19.13
2018-05-16T01:16:20.667Z,16.37
2018-05-16T01:18:55.609Z,17.00
2018-05-16T01:21:29.418Z,16.73
2018-05-16T01:24:03.959Z,16.17
2018-05-16T01:26:39.674Z,16.47
2018-05-16T01:29:13.498Z,16.77
2018-05-16T01:31:47.619Z,16.80
2018-05-16T01:34:21.516Z,17.60
2018-05-16T01:36:55.830Z,17.23
2018-05-16T01:39:30.470Z,17.17
2018-05-16T01:42:04.267Z,16.30
2018-05-16T01:44:38.576Z,17.87
2018-05-16T01:47:13.631Z,17.33
2018-05-16T01:49:48.538Z,16.63
2018-05-16T01:52:23.547Z,15.83
2018-05-16T01:54:57.291Z,15.80
2018-05-16T01:57:31.067Z,17.63
2018-05-16T02:00:04.975Z,18.30
2018-05-16T02:02:39.415Z,17.47
2018-05-16T02:05:13.738Z,17.33
2018-05-16T02:07:47.655Z,17.43
2018-05-16T02:10:21.963Z,17.20
2018-05-16T02:12:56.556Z,16.87
2018-05-16T02:15:31.091Z,17.43
2018-05-16T02:18:05.200Z,18.97
2018-05-16T02:20:39.242Z,17.63
2018-05-16T02:23:12.936Z,18.30
2018-05-16T02:25:46.838Z,17.47
2018-05-16T02:28:20.727Z,19.00
2018-05-16T02:30:54.417Z,19.80
2018-05-16T02:33:28.123Z,19.23
2018-05-16T02:36:02.975Z,20.13
2018-05-16T02:38:37.607Z,18.57
2018-05-16T02:41:11.294Z,20.67
2018-05-16T02:43:45.627Z,20.20
2018-05-16T02:46:19.215Z,21.10
2018-05-16T02:48:53.708Z,21.73
2018-05-16T02:51:27.536Z,20.10
2018-05-16T02:54:02.343Z,19.87
2018-05-16T02:56:36.384Z,22.03
2018-05-16T02:59:11.392Z,21.10
2018-05-16T03:01:46.525Z,22.33
2018-05-16T03:04:20.234Z,23.10
2018-05-16T03:06:54.667Z,20.67
2018-05-16T03:09:28.656Z,22.93
2018-05-16T03:12:02.381Z,21.83
2018-05-16T03:14:37.292Z,24.27
2018-05-16T03:17:11.003Z,23.47
2018-05-16T03:19:44.722Z,23.43
2018-05-16T03:22:19.878Z,23.60
2018-05-16T03:24:54.155Z,23.50
2018-05-16T03:27:28.906Z,24.97
2018-05-16T03:30:03.799Z,27.33
2018-05-16T03:32:38.544Z,26.83
2018-05-16T03:35:13.875Z,26.37
2018-05-16T03:37:48.003Z,25.13
2018-05-16T03:40:22.475Z,26.03
2018-05-16T03:42:56.258Z,25.70
2018-05-16T03:45:30.216Z,26.10
2018-05-16T03:48:03.961Z,27.60
2018-05-16T03:50:38.029Z,27.17
2018-05-16T03:53:11.941Z,26.83
2018-05-16T03:55:46.279Z,28.60
2018-05-16T03:58:32.056Z,25.73
2018-05-16T04:01:18.440Z,27.43
2018-05-16T04:04:04.736Z,26.47
2018-05-16T04:06:39.691Z,28.77
2018-05-16T04:09:13.903Z,29.20
2018-05-16T04:11:49.233Z,27.60
2018-05-16T04:14:23.738Z,28.97
2018-05-16T04:16:58.471Z,30.37
2018-05-16T04:19:33.197Z,30.97
2018-05-16T04:22:07.070Z,34.23
2018-05-16T04:24:42.884Z,34.43
2018-05-16T04:27:16.787Z,31.33
2018-05-16T04:29:50.687Z,32.13
2018-05-16T04:32:25.196Z,32.43
2018-05-16T04:34:59.325Z,35.27
2018-05-16T04:37:34.024Z,33.40
2018-05-16T04:40:08.581Z,31.27
2018-05-16T04:42:43.171Z,32.17
2018-05-16T04:45:17.899Z,33.27
2018-05-16T04:47:52.647Z,35.87
2018-05-16T04:50:27.057Z,36.77
2018-05-16T04:53:00.867Z,42.00
2018-05-16T04:55:34.833Z,39.43
2018-05-16T04:58:08.975Z,49.67
2018-05-16T05:00:43.546Z,42.63
2018-05-16T05:03:17.400Z,42.27
2018-05-16T05:05:52.143Z,46.23
2018-05-16T05:08:26.871Z,40.27
2018-05-16T05:11:01.477Z,44.67
2018-05-16T05:13:35.177Z,37.90
2018-05-16T05:16:09.299Z,35.97
2018-05-16T05:18:44.007Z,34.00
2018-05-16T05:21:17.716Z,33.43
2018-05-16T05:23:52.459Z,34.10
2018-05-16T05:26:26.452Z,38.07
2018-05-16T05:29:01.404Z,40.47
2018-05-16T05:31:35.015Z,41.33
2018-05-16T05:34:09.847Z,36.70
2018-05-16T05:36:44.325Z,39.00
2018-05-16T05:39:18.037Z,36.60
2018-05-16T05:41:52.945Z,37.70
2018-05-16T05:44:26.888Z,38.60
2018-05-16T05:47:02.030Z,32.47
2018-05-16T05:49:35.940Z,34.03
2018-05-16T05:52:10.247Z,31.57
2018-05-16T05:54:43.955Z,40.60
2018-05-16T05:57:17.950Z,39.20
2018-05-16T05:59:52.282Z,44.10
2018-05-16T06:02:26.564Z,38.67
2018-05-16T06:05:01.393Z,42.93
2018-05-16T06:07:35.930Z,38.20
2018-05-16T06:10:11.173Z,36.93
2018-05-16T06:12:46.354Z,34.30
2018-05-16T06:15:22.043Z,35.47
2018-05-16T06:17:55.770Z,31.77
2018-05-16T06:20:31.503Z,29.07
2018-05-16T06:23:06.132Z,31.10
2018-05-16T06:25:40.846Z,30.73
2018-05-16T06:28:14.559Z,29.67
2018-05-16T06:30:49.400Z,29.87
2018-05-16T06:33:24.000Z,30.77
2018-05-16T06:35:58.947Z,25.63
2018-05-16T06:38:32.963Z,26.37
2018-05-16T06:41:07.457Z,29.07
2018-05-16T06:43:43.117Z,25.73
2018-05-16T06:46:18.445Z,31.70
2018-05-16T06:48:52.227Z,28.70
2018-05-16T06:51:26.198Z,26.23
2018-05-16T06:54:01.820Z,23.47
2018-05-16T06:56:35.513Z,25.10
2018-05-16T06:59:10.752Z,24.47
2018-05-16T07:01:44.350Z,23.87
2018-05-16T07:04:19.492Z,24.73
2018-05-16T07:06:54.108Z,21.93
2018-05-16T07:09:30.912Z,22.00
2018-05-16T07:12:04.788Z,20.83
2018-05-16T07:14:39.636Z,16.93
2018-05-16T07:17:13.650Z,16.23
2018-05-16T07:19:48.377Z,15.70
2018-05-16T07:22:22.385Z,15.17
2018-05-16T07:24:56.173Z,10.23
2018-05-16T07:27:30.807Z,9.87
2018-05-16T07:30:04.624Z,11.20
2018-05-16T07:45:26.087Z,11.60
2018-05-16T07:48:00.531Z,11.60
2018-05-16T07:50:34.213Z,11.77
2018-05-16T07:53:07.942Z,11.60
2018-05-16T07:55:42.872Z,10.67
2018-05-16T07:58:16.574Z,13.00
2018-05-16T08:00:50.174Z,11.03
2018-05-16T08:03:24.370Z,11.43
2018-05-16T08:05:59.091Z,11.30
2018-05-16T08:08:32.717Z,12.17
2018-05-16T08:11:08.338Z,13.30
2018-05-16T08:13:42.047Z,13.50
2018-05-16T08:16:15.946Z,11.17
2018-05-16T08:18:50.891Z,12.27
2018-05-16T08:21:25.340Z,11.23
2018-05-16T08:23:59.936Z,12.97
2018-05-16T08:26:33.620Z,12.47
2018-05-16T08:29:08.247Z,12.00
2018-05-16T08:31:42.791Z,12.80
2018-05-16T08:34:17.415Z,12.70
2018-05-16T08:36:51.280Z,15.67
2018-05-16T08:39:25.014Z,13.60
2018-05-16T08:41:59.339Z,12.10
2018-05-16T08:44:33.854Z,12.57
2018-05-16T08:47:08.460Z,12.20
2018-05-16T08:49:42.895Z,14.40
2018-05-16T08:52:16.790Z,11.83
2018-05-16T08:54:52.160Z,12.13
2018-05-16T08:57:26.563Z,13.23
2018-05-16T09:00:01.180Z,14.43
2018-05-16T09:02:34.988Z,15.23
2018-05-16T09:05:08.779Z,14.63
2018-05-16T09:07:43.325Z,10.80
2018-05-16T09:10:17.739Z,11.10
2018-05-16T09:12:51.851Z,12.77
2018-05-16T09:15:25.950Z,10.50
2018-05-16T09:18:00.490Z,10.77
2018-05-16T09:20:34.082Z,8.77
2018-05-16T09:23:08.086Z,7.93
2018-05-16T09:25:42.706Z,7.27
2018-05-16T09:28:17.874Z,5.90
2018-05-16T09:30:51.733Z,5.47
2018-05-16T09:33:26.470Z,7.23
2018-05-16T09:36:01.830Z,4.90
2018-05-16T09:38:35.408Z,4.73
2018-05-16T09:41:09.743Z,5.03
2018-05-16T09:43:43.726Z,5.97
2018-05-16T09:46:18.067Z,5.30
2018-05-16T09:48:52.052Z,5.67
2018-05-16T09:51:25.927Z,5.30
2018-05-16T09:54:00.283Z,5.33
2018-05-16T09:56:34.927Z,7.20
2018-05-16T09:59:11.690Z,8.17
2018-05-16T10:01:45.595Z,5.83
2018-05-16T10:04:19.815Z,6.03
2018-05-16T10:06:54.212Z,7.20
2018-05-16T10:09:29.079Z,5.20
2018-05-16T10:12:03.666Z,5.80
2018-05-16T10:14:37.474Z,6.43
2018-05-16T10:17:11.711Z,6.57
2018-05-16T10:19:45.603Z,5.60
2018-05-16T10:22:20.936Z,5.80
2018-05-16T10:24:54.542Z,6.13
2018-05-16T10:27:29.990Z,5.60
2018-05-16T10:30:03.983Z,7.30
2018-05-16T10:32:38.814Z,5.60
2018-05-16T10:35:13.240Z,6.60
2018-05-16T10:37:47.579Z,6.73
2018-05-16T10:40:21.997Z,6.43
2018-05-16T10:42:55.698Z,6.60
2018-05-16T10:45:29.393Z,6.33
2018-05-16T10:48:03.700Z,6.37
2018-05-16T10:50:40.067Z,8.03
2018-05-16T10:53:13.882Z,8.67
2018-05-16T10:55:49.629Z,8.97
2018-05-16T10:58:24.153Z,8.60
2018-05-16T11:00:58.756Z,9.27
2018-05-16T11:03:33.481Z,9.03
2018-05-16T11:06:08.514Z,9.50
2018-05-16T11:08:42.322Z,9.60
2018-05-16T11:11:16.149Z,7.83
2018-05-16T11:13:50.971Z,7.30
2018-05-16T11:16:24.578Z,6.37
2018-05-16T11:18:59.332Z,6.50
2018-05-16T11:21:34.101Z,7.53
2018-05-16T11:24:11.212Z,8.07
2018-05-16T11:26:44.896Z,7.40
2018-05-16T11:29:20.104Z,8.03
2018-05-16T11:31:55.699Z,7.07
2018-05-16T11:34:30.011Z,7.57
2018-05-16T11:37:04.511Z,7.10
2018-05-16T11:39:38.531Z,7.10
2018-05-16T11:42:13.253Z,6.50
2018-05-16T11:44:47.971Z,7.33
2018-05-16T11:47:22.483Z,7.50
2018-05-16T11:49:56.219Z,7.00
2018-05-16T11:52:30.610Z,5.70
2018-05-16T11:55:04.915Z,6.80
2018-05-16T11:57:39.580Z,6.70
2018-05-16T12:00:16.984Z,7.73
2018-05-16T12:02:50.964Z,6.50
2018-05-16T12:05:25.907Z,7.13
2018-05-16T12:08:00.230Z,7.23
2018-05-16T12:10:34.317Z,6.67
2018-05-16T12:13:09.981Z,6.40
2018-05-16T12:15:45.403Z,6.80
2018-05-16T12:18:19.099Z,7.63
2018-05-16T12:20:54.284Z,5.70
2018-05-16T12:23:30.362Z,4.70
2018-05-16T12:26:04.820Z,4.93
2018-05-16T12:28:39.773Z,4.00
2018-05-16T12:31:13.462Z,4.73
2018-05-16T12:33:47.294Z,5.40
2018-05-16T12:36:20.880Z,3.73
2018-05-16T12:38:55.395Z,3.80
2018-05-16T12:41:29.493Z,4.33
2018-05-16T12:44:03.307Z,4.60
2018-05-16T12:46:38.078Z,4.80
2018-05-16T12:49:12.571Z,4.50
2018-05-16T12:51:46.230Z,4.63
2018-05-16T12:54:21.186Z,4.87
2018-05-16T12:56:56.952Z,4.33
2018-05-16T12:59:35.240Z,6.90
2018-05-16T13:02:10.770Z,5.03
2018-05-16T13:04:45.451Z,5.43
2018-05-16T13:07:20.745Z,6.40
2018-05-16T13:09:56.071Z,7.07
2018-05-16T13:12:33.221Z,6.50
2018-05-16T13:15:08.291Z,5.50
2018-05-16T13:17:42.816Z,4.87
2018-05-16T13:20:20.526Z,5.10
2018-05-16T13:22:55.057Z,4.57
2018-05-16T13:25:30.090Z,4.13
2018-05-16T13:28:03.875Z,4.20
2018-05-16T13:30:38.742Z,4.60
2018-05-16T13:33:12.708Z,4.43
2018-05-16T13:35:46.336Z,5.33
2018-05-16T13:38:21.360Z,6.50
2018-05-16T13:40:55.373Z,8.33
2018-05-16T13:43:31.324Z,9.23
2018-05-16T13:46:06.870Z,10.17
2018-05-16T13:48:41.978Z,9.90
2018-05-16T13:51:16.017Z,7.80
2018-05-16T13:53:51.534Z,6.13
2018-05-16T13:56:25.960Z,8.07
2018-05-16T13:59:00.154Z,7.13
2018-05-16T14:01:33.973Z,6.37
2018-05-16T14:04:08.946Z,6.00
2018-05-16T14:06:43.330Z,5.93
2018-05-16T14:09:17.353Z,5.83
2018-05-16T14:11:52.347Z,4.77
2018-05-16T14:14:27.506Z,4.00
2018-05-16T14:17:01.939Z,4.10
2018-05-16T14:19:35.547Z,4.30
2018-05-16T14:22:10.354Z,4.60
2018-05-16T14:24:44.048Z,5.27
2018-05-16T14:27:18.586Z,4.27
2018-05-16T14:29:52.199Z,4.37
2018-05-16T14:32:27.528Z,4.90
2018-05-16T14:35:03.261Z,4.90
2018-05-16T14:37:37.806Z,5.30
2018-05-16T14:40:11.490Z,6.13
2018-05-16T14:42:45.439Z,5.43
2018-05-16T14:45:19.194Z,6.40
2018-05-16T14:47:53.975Z,6.00
2018-05-16T14:50:28.754Z,6.80
2018-05-16T14:53:03.379Z,5.70
2018-05-16T14:55:39.131Z,6.33
2018-05-16T14:58:14.175Z,6.30
2018-05-16T15:00:49.225Z,7.00
2018-05-16T15:03:23.631Z,5.63
2018-05-16T15:05:57.619Z,6.77
2018-05-16T15:08:33.380Z,7.93
2018-05-16T15:11:08.221Z,7.13
2018-05-16T15:13:42.415Z,7.37
2018-05-16T15:16:17.238Z,7.03
2018-05-16T15:18:51.972Z,8.00
2018-05-16T15:21:25.675Z,5.87
2018-05-16T15:24:00.400Z,4.07
2018-05-16T15:26:34.210Z,6.20
2018-05-16T15:29:07.995Z,3.43
2018-05-16T15:31:42.438Z,2.63
2018-05-16T15:34:20.253Z,3.10
2018-05-16T15:36:54.245Z,3.30
2018-05-16T15:39:29.275Z,3.20
2018-05-16T15:42:03.266Z,5.03
2018-05-16T15:44:38.027Z,3.53
2018-05-16T15:47:11.593Z,3.77
2018-05-16T15:49:46.426Z,4.10
2018-05-16T15:52:21.147Z,6.17
2018-05-16T15:54:55.068Z,4.30
2018-05-16T15:57:30.092Z,7.33
2018-05-16T16:00:04.423Z,4.57
2018-05-16T16:02:39.881Z,5.03
2018-05-16T16:18:31.259Z,3.67
2018-05-16T16:21:06.303Z,3.93
2018-05-16T16:23:40.386Z,3.10
2018-05-16T16:39:01.727Z,2.83
2018-05-16T16:41:35.798Z,3.27
2018-05-16T16:44:10.923Z,3.10
2018-05-16T16:46:44.735Z,3.10
2018-05-16T16:49:19.028Z,2.50
2018-05-16T16:51:52.949Z,3.23
2018-05-16T16:54:28.211Z,3.43
2018-05-16T16:57:02.427Z,3.07
2018-05-16T16:59:36.348Z,3.90
2018-05-16T17:02:11.168Z,4.20
2018-05-16T17:04:44.943Z,6.83
2018-05-16T17:07:19.068Z,4.57
2018-05-16T17:09:53.195Z,5.13
2018-05-16T17:12:27.948Z,4.40
2018-05-16T17:15:02.643Z,5.80
2018-05-16T17:17:36.419Z,4.70
2018-05-16T17:20:11.911Z,8.73
2018-05-16T17:22:46.958Z,4.93
2018-05-16T17:25:22.059Z,4.83
2018-05-16T17:27:56.582Z,4.90
2018-05-16T17:30:31.389Z,3.90
2018-05-16T17:33:05.348Z,3.63
2018-05-16T17:35:39.840Z,3.60
2018-05-16T17:38:14.337Z,5.53
2018-05-16T17:40:48.329Z,4.20
2018-05-16T17:43:22.671Z,4.30
2018-05-16T17:45:57.152Z,3.70
2018-05-16T17:48:32.295Z,4.47
2018-05-16T17:51:06.132Z,4.60
2018-05-16T17:53:40.379Z,4.70
2018-05-16T17:56:14.272Z,5.40
2018-05-16T17:58:48.249Z,7.77
2018-05-16T18:01:23.075Z,5.60
2018-05-16T18:03:56.795Z,5.90
2018-05-16T18:06:30.518Z,6.20
2018-05-16T18:09:04.312Z,7.10
2018-05-16T18:11:38.385Z,8.03
2018-05-16T18:27:43.146Z,7.00
2018-05-16T18:30:17.234Z,7.50
2018-05-16T18:32:51.858Z,7.03
2018-05-16T18:35:26.179Z,6.70
2018-05-16T18:38:00.273Z,6.63
2018-05-16T18:40:34.701Z,6.83
2018-05-16T18:43:08.723Z,7.30
2018-05-16T18:45:42.823Z,8.30
2018-05-16T18:48:17.639Z,8.40
2018-05-16T18:50:52.804Z,8.90
2018-05-16T18:53:28.045Z,8.67
2018-05-16T18:56:04.175Z,8.70
2018-05-16T18:58:39.513Z,8.83
2018-05-16T19:01:13.311Z,8.43
2018-05-16T19:03:47.555Z,8.40
2018-05-16T19:06:22.963Z,8.33
2018-05-16T19:08:57.415Z,9.23
2018-05-16T19:11:32.189Z,11.07
2018-05-16T19:14:06.579Z,9.23
2018-05-16T19:16:41.467Z,9.80
2018-05-16T19:19:16.419Z,10.53
2018-05-16T19:21:50.627Z,10.13
2018-05-16T19:24:26.351Z,10.47
2018-05-16T19:27:03.868Z,11.63
2018-05-16T19:29:38.702Z,11.83
2018-05-16T19:32:13.590Z,10.73
2018-05-16T19:34:48.437Z,9.77
2018-05-16T19:37:22.444Z,11.03
2018-05-16T19:39:56.250Z,10.27
2018-05-16T19:42:31.199Z,10.77
2018-05-16T19:45:05.720Z,11.23
2018-05-16T19:47:41.567Z,13.43
2018-05-16T19:50:17.130Z,11.70
2018-05-16T19:52:51.455Z,13.33
2018-05-16T19:55:25.426Z,18.12
2018-05-16T19:57:59.665Z,14.17
2018-05-16T20:00:34.090Z,13.03
2018-05-16T20:03:07.871Z,13.10
2018-05-16T20:05:41.992Z,13.00
2018-05-16T20:08:16.924Z,13.33
2018-05-16T20:10:52.872Z,13.87
2018-05-16T20:13:28.435Z,14.23
2018-05-16T20:16:03.574Z,14.63
2018-05-16T20:18:37.560Z,13.10
2018-05-16T20:21:15.463Z,12.67
2018-05-16T20:23:51.374Z,12.50
2018-05-16T20:26:25.115Z,13.67
2018-05-16T20:28:59.433Z,13.93
2018-05-16T20:31:34.051Z,16.23
2018-05-16T20:34:09.087Z,14.23
2018-05-16T20:36:43.849Z,14.00
2018-05-16T20:39:18.022Z,14.87
2018-05-16T20:41:52.360Z,16.87
2018-05-16T20:44:26.380Z,15.73
2018-05-16T20:47:01.503Z,13.60
2018-05-16T20:49:35.315Z,19.20
2018-05-16T20:52:10.430Z,17.10
2018-05-16T20:54:44.947Z,14.73
2018-05-16T20:57:21.115Z,14.73
2018-05-16T20:59:55.621Z,15.23
2018-05-16T21:02:29.540Z,14.00
2018-05-16T21:05:03.347Z,15.27
2018-05-16T21:07:37.272Z,14.47
2018-05-16T21:10:13.836Z,17.47
2018-05-16T21:12:47.861Z,19.43
2018-05-16T21:15:21.738Z,17.73
2018-05-16T21:17:56.178Z,16.33
2018-05-16T21:20:30.190Z,17.50
2018-05-16T21:23:04.172Z,18.70
2018-05-16T21:25:38.795Z,20.50
2018-05-16T21:28:13.371Z,17.13
2018-05-16T21:30:46.943Z,15.53
2018-05-16T21:33:21.541Z,16.17
2018-05-16T21:35:55.447Z,17.27
2018-05-16T21:38:29.791Z,20.07
2018-05-16T21:41:03.674Z,15.37
2018-05-16T21:43:38.334Z,16.17
2018-05-16T21:46:12.943Z,16.27
2018-05-16T21:48:47.756Z,13.77
2018-05-16T21:51:22.292Z,16.10
2018-05-16T21:53:56.076Z,14.70
2018-05-16T21:56:29.822Z,14.00
2018-05-16T21:59:04.396Z,14.73
2018-05-16T22:01:38.211Z,12.43
2018-05-16T22:04:12.736Z,12.50
2018-05-16T22:06:46.858Z,13.00
2018-05-16T22:09:21.977Z,12.90
2018-05-16T22:11:56.418Z,12.63
2018-05-16T22:14:30.432Z,14.73
2018-05-16T22:17:04.118Z,13.80
2018-05-16T22:19:39.093Z,15.40
2018-05-16T22:22:14.299Z,18.37
2018-05-16T22:24:48.187Z,18.60
2018-05-16T22:27:22.518Z,14.03
2018-05-16T22:29:56.704Z,13.87
2018-05-16T22:32:38.087Z,13.27
2018-05-16T22:35:18.238Z,18.83
2018-05-16T22:37:58.527Z,19.43
2018-05-16T22:40:38.051Z,15.40
2018-05-16T22:43:12.369Z,15.90
2018-05-16T22:45:52.407Z,16.07
2018-05-16T22:48:26.551Z,16.60
2018-05-16T22:51:01.371Z,15.60
2018-05-16T22:53:35.144Z,15.03
2018-05-16T22:56:09.495Z,15.93
2018-05-16T22:58:44.091Z,14.27
2018-05-16T23:01:18.532Z,15.67
2018-05-16T23:03:52.553Z,14.23
2018-05-16T23:06:26.347Z,14.13
2018-05-16T23:09:00.673Z,13.77
2018-05-16T23:11:34.443Z,13.97
2018-05-16T23:14:08.255Z,13.60
2018-05-16T23:16:42.987Z,15.67
2018-05-16T23:19:18.320Z,15.27
2018-05-16T23:21:52.031Z,15.83
2018-05-16T23:24:25.822Z,18.07
2018-05-16T23:27:00.176Z,15.77
2018-05-16T23:29:33.947Z,17.13
2018-05-16T23:32:08.674Z,17.73
2018-05-16T23:34:42.991Z,16.07
2018-05-16T23:37:17.545Z,14.63
2018-05-16T23:39:53.190Z,14.80
2018-05-16T23:42:26.754Z,16.10
2018-05-16T23:45:01.186Z,15.93
2018-05-16T23:47:34.787Z,14.07
2018-05-16T23:50:09.528Z,13.83
2018-05-16T23:52:43.331Z,15.00
2018-05-16T23:55:17.146Z,16.93
2018-05-16T23:57:51.738Z,14.87
